Time;durP1;ratioP1;P1;durP2;ratioP2;P2;SDS_P1;SDS_P2;PMS_P1;PMS_P2;Temp;Humidity;BMP_temperature;BMP_pressure;BME280_temperature;BME280_humidity;BME280_pressure;Samples;Min_cycle;Max_cycle;Signal;HPM_P1;HPM_P2
2021/11/22 00:00:58;;;;;;;28.33;6.25;;;;;;;;;;5055870;28;20048;-63
2021/11/22 00:03:24;;;;;;;29.13;5.80;;;;;;;;;;5055103;28;20093;-63
2021/11/22 00:05:50;;;;;;;23.75;6.13;;;;;;;;;;5056244;28;20039;-63
2021/11/22 00:08:16;;;;;;;25.98;6.53;;;;;;;;;;5056272;28;20036;-63
2021/11/22 00:10:42;;;;;;;20.55;6.55;;;;;;;;;;5038515;28;20035;-63
2021/11/22 00:13:08;;;;;;;28.05;6.97;;;;;;;;;;5056154;28;20033;-63
2021/11/22 00:15:34;;;;;;;16.95;5.90;;;;;;;;;;5056510;28;20032;-63
2021/11/22 00:18:00;;;;;;;28.25;6.57;;;;;;;;;;5055895;28;20042;-63
2021/11/22 00:20:26;;;;;;;25.38;5.45;;;;;;;;;;5056043;28;20115;-63
2021/11/22 00:22:52;;;;;;;19.38;5.32;;;;;;;;;;5038426;28;20699;-64
2021/11/22 00:25:18;;;;;;;26.38;7.03;;;;;;;;;;5036940;28;20040;-63
2021/11/22 00:27:44;;;;;;;25.35;6.30;;;;;;;;;;5055836;28;20037;-63
2021/11/22 00:30:22;;;;;;;19.02;5.78;;;;;;;;;;5022518;28;20032;-64
2021/11/22 00:33:00;;;;;;;26.17;6.53;;;;;;;;;;5036645;28;20095;-63
2021/11/22 00:35:55;;;;;;;27.83;6.22;;;;;;;;;;4997494;28;20052;-63
2021/11/22 00:38:22;;;;;;;20.55;6.47;;;;;;;;;;5051047;28;20530;-63
2021/11/22 00:40:48;;;;;;;26.50;6.10;;;;;;;;;;5054138;28;20032;-63
2021/11/22 00:43:14;;;;;;;23.98;6.95;;;;;;;;;;5056184;28;20039;-63
2021/11/22 00:45:40;;;;;;;26.27;6.70;;;;;;;;;;5055493;28;20040;-63
2021/11/22 00:48:07;;;;;;;22.48;7.22;;;;;;;;;;5055944;28;20032;-63
2021/11/22 00:50:34;;;;;;;25.08;6.63;;;;;;;;;;5057097;28;20139;-63
2021/11/22 00:53:01;;;;;;;22.23;6.65;;;;;;;;;;5056841;28;20047;-64
2021/11/22 00:55:27;;;;;;;28.75;8.05;;;;;;;;;;5057679;28;20127;-63
2021/11/22 00:57:53;;;;;;;29.48;7.45;;;;;;;;;;5057713;28;20060;-63
2021/11/22 01:00:19;;;;;;;23.17;7.55;;;;;;;;;;5060273;28;20036;-63
2021/11/22 01:02:45;;;;;;;26.48;6.65;;;;;;;;;;5059406;28;20059;-63
2021/11/22 01:05:11;;;;;;;19.73;6.85;;;5.30;99.90;;;;;;5058152;28;20082;-63
2021/11/22 01:07:37;;;;;;;24.33;7.50;;;;;;;;;;5058343;28;20737;-63
2021/11/22 01:10:04;;;;;;;37.65;7.63;;;;;;;;;;5058854;28;20060;-63
2021/11/22 01:12:30;;;;;;;27.30;7.28;;;;;;;;;;5057445;28;20036;-65
2021/11/22 01:14:56;;;;;;;33.25;7.10;;;;;;;;;;5056780;28;20091;-64
2021/11/22 01:17:22;;;;;;;31.92;7.20;;;;;;;;;;5058456;28;20071;-63
2021/11/22 01:19:51;;;;;;;23.02;6.60;;;;;;;;;;5059309;28;20437;-63
2021/11/22 01:22:17;;;;;;;33.65;7.15;;;;;;;;;;5059558;28;20449;-63
2021/11/22 01:24:43;;;;;;;31.10;7.22;;;;;;;;;;5057925;28;20035;-63
2021/11/22 01:27:10;;;;;;;22.52;7.38;;;;;;;;;;5058716;28;20191;-63
2021/11/22 01:29:36;;;;;;;17.38;6.25;;;;;;;;;;5058852;28;20567;-63
2021/11/22 01:32:02;;;;;;;24.60;6.70;;;;;;;;;;5059130;28;20518;-63
2021/11/22 01:34:28;;;;;;;40.20;8.20;;;;;;;;;;5059907;28;20100;-63
2021/11/22 01:36:55;;;;;;;21.77;6.72;;;;;;;;;;5059559;28;20886;-63
2021/11/22 01:39:21;;;;;;;31.40;7.20;;;;;;;;;;5060418;28;20044;-63
2021/11/22 01:41:47;;;;;;;21.13;5.90;;;;;;;;;;5060931;28;20032;-63
2021/11/22 01:44:13;;;;;;;10.85;5.57;;;;;;;;;;5062211;28;20031;-63
2021/11/22 01:46:39;;;;;;;18.63;5.63;;;;;;;;;;5062013;28;20029;-63
2021/11/22 01:49:05;;;;;;;27.95;6.10;;;;;;;;;;5061317;28;20063;-63
2021/11/22 01:51:31;;;;;;;15.93;5.72;;;;;;;;;;5061460;28;20748;-63
2021/11/22 01:53:57;;;;;;;16.90;4.97;;;;;;;;;;5060749;28;20561;-63
2021/11/22 01:56:23;;;;;;;19.10;5.35;;;;;;;;;;5060460;28;20032;-63
2021/11/22 01:58:49;;;;;;;18.17;5.35;;;;;;;;;;5059649;28;20036;-63
2021/11/22 02:01:15;;;;;;;15.85;5.20;;;;;;;;;;5059616;28;20028;-63
2021/11/22 02:03:41;;;;;;;22.30;5.07;;;;;;;;;;5059126;28;20886;-63
2021/11/22 02:06:07;;;;;;;17.73;5.68;;;;;;;;;;5060390;28;20805;-63
2021/11/22 02:08:33;;;;;;;16.30;5.40;;;;;;;;;;5059548;28;20040;-63
2021/11/22 02:10:59;;;;;;;15.25;6.05;;;;;;;;;;5059706;28;20700;-63
2021/11/22 02:13:25;;;;;;;23.65;5.75;;;;;;;;;;5057559;28;20035;-63
2021/11/22 02:15:52;;;;;;;19.77;5.35;;;;;;;;;;5059853;28;20032;-63
2021/11/22 02:18:18;;;;;;;17.42;5.28;;;;;;;;;;5059405;28;20052;-63
2021/11/22 02:20:44;;;;;;;12.65;4.55;;;;;;;;;;5059189;28;20048;-63
2021/11/22 02:23:11;;;;;;;17.42;4.85;;;;;;;;;;5059436;28;20033;-63
2021/11/22 02:25:36;;;;;;;11.45;4.00;;;5.10;99.90;;;;;;5059454;28;20094;-63
2021/11/22 02:28:02;;;;;;;19.30;4.93;;;;;;;;;;5058004;28;20028;-63
2021/11/22 02:30:31;;;;;;;10.30;4.72;;;;;;;;;;5058645;28;20060;-63
2021/11/22 02:32:57;;;;;;;14.15;3.97;;;;;;;;;;5041012;28;20105;-63
2021/11/22 02:35:23;;;;;;;13.30;4.47;;;;;;;;;;5059910;28;20039;-63
2021/11/22 02:37:49;;;;;;;13.20;4.03;;;;;;;;;;5058539;28;20028;-63
2021/11/22 02:40:15;;;;;;;15.20;3.95;;;;;;;;;;5059341;28;20040;-63
2021/11/22 02:42:42;;;;;;;10.70;4.00;;;5.20;99.90;;;;;;5059866;28;20028;-63
2021/11/22 02:45:07;;;;;;;12.85;3.53;;;5.10;99.90;;;;;;5058627;28;20135;-63
2021/11/22 02:47:33;;;;;;;7.07;3.25;;;;;;;;;;5058789;28;20042;-63
2021/11/22 02:50:00;;;;;;;10.85;2.90;;;;;;;;;;5058727;28;20041;-63
2021/11/22 02:52:26;;;;;;;14.75;2.95;;;;;;;;;;5058742;28;20121;-63
2021/11/22 02:54:52;;;;;;;7.60;2.90;;;;;;;;;;5041251;28;20036;-63
2021/11/22 02:57:18;;;;;;;13.77;3.58;;;;;;;;;;5058174;28;20028;-63
2021/11/22 02:59:44;;;;;;;7.10;3.00;;;;;;;;;;5023655;28;20033;-63
2021/11/22 03:02:11;;;;;;;8.93;3.08;;;;;;;;;;5058209;28;20040;-63
2021/11/22 03:04:37;;;;;;;9.15;3.03;;;5.40;99.90;;;;;;5040386;28;20188;-63
2021/11/22 03:07:03;;;;;;;10.10;2.60;;;;;;;;;;5057656;28;20035;-63
2021/11/22 03:09:29;;;;;;;9.32;2.75;;;;;;;;;;5057927;28;20028;-63
2021/11/22 03:11:55;;;;;;;7.10;2.78;;;;;;;;;;5058296;28;20506;-63
2021/11/22 03:14:23;;;;;;;7.10;2.33;;;;;;;;;;5058243;28;20064;-63
2021/11/22 03:16:49;;;;;;;5.53;2.70;;;;;;;;;;5059309;28;20043;-63
2021/11/22 03:19:15;;;;;;;7.13;2.63;;;;;;;;;;5058207;28;20119;-63
2021/11/22 03:21:41;;;;;;;12.40;3.13;;;;;;;;;;5057672;28;20131;-63
2021/11/22 03:24:07;;;;;;;8.68;3.30;;;;;;;;;;5058030;28;20040;-63
2021/11/22 03:26:33;;;;;;;5.95;2.58;;;;;;;;;;5058604;28;20452;-63
2021/11/22 03:29:00;;;;;;;9.57;3.10;;;;;;;;;;5056976;28;20039;-63
2021/11/22 03:31:26;;;;;;;8.52;2.80;;;;;;;;;;5058071;28;20041;-63
2021/11/22 03:33:52;;;;;;;7.68;2.70;;;;;;;;;;5040069;28;20488;-63
2021/11/22 03:36:18;;;;;;;13.70;2.92;;;;;;;;;;5057320;28;20139;-63
2021/11/22 03:38:44;;;;;;;4.80;2.30;;;;;;;;;;5056614;28;20036;-63
2021/11/22 03:41:15;;;;;;;8.90;2.53;;;;;;;;;;5056852;28;20563;-63
2021/11/22 03:46:10;;;;;;;5.30;2.50;;;;;;;;;;5057287;28;20113;-63
2021/11/22 03:48:37;;;;;;;6.63;2.65;;;;;;;;;;5056867;28;20614;-63
2021/11/22 03:51:03;;;;;;;4.85;2.42;;;;;;;;;;5054610;28;20039;-63
2021/11/22 03:53:29;;;;;;;5.80;2.38;;;;;;;;;;5056827;28;20040;-63
2021/11/22 03:55:55;;;;;;;5.00;2.65;;;;;;;;;;5039081;28;20037;-63
2021/11/22 03:58:22;;;;;;;8.13;2.85;;;;;;;;;;5055545;28;20743;-63
2021/11/22 04:00:48;;;;;;;11.23;2.75;;;;;;;;;;5038449;28;20028;-63
2021/11/22 04:03:14;;;;;;;12.07;2.40;;;;;;;;;;5057139;28;20033;-63
2021/11/22 04:05:40;;;;;;;6.07;2.63;;;;;;;;;;5056611;28;20040;-63
2021/11/22 04:08:08;;;;;;;11.50;2.60;;;;;;;;;;5056614;28;20032;-63
2021/11/22 04:10:34;;;;;;;5.65;2.45;;;;;;;;;;5056680;28;20724;-63
2021/11/22 04:13:00;;;;;;;8.73;2.20;;;;;;;;;;5056552;28;20159;-63
2021/11/22 04:15:26;;;;;;;6.93;2.50;;;;;;;;;;5057101;28;20028;-63
2021/11/22 04:17:52;;;;;;;7.28;2.30;;;;;;;;;;5056171;28;20139;-63
2021/11/22 04:20:18;;;;;;;6.70;2.25;;;;;;;;;;5056623;28;20037;-63
2021/11/22 04:22:44;;;;;;;8.73;2.65;;;;;;;;;;5056770;28;20043;-63
2021/11/22 04:25:10;;;;;;;9.60;2.10;;;;;;;;;;5055892;28;20976;-63
2021/11/22 04:27:37;;;;;;;6.22;1.75;;;;;;;;;;5055967;28;20055;-63
2021/11/22 04:30:03;;;;;;;5.30;1.80;;;;;;;;;;5055572;28;20040;-63
2021/11/22 04:32:28;;;;;;;5.85;2.08;;;5.00;99.90;;;;;;5056465;28;20043;-63
2021/11/22 04:34:54;;;;;;;6.10;1.65;;;;;;;;;;5056849;28;20036;-63
2021/11/22 04:37:25;;;;;;;5.20;2.05;;;;;;;;;;5056028;28;20457;-63
2021/11/22 04:39:52;;;;;;;10.63;1.60;;;;;;;;;;5038534;28;20641;-63
2021/11/22 04:42:18;;;;;;;6.18;1.63;;;;;;;;;;5056427;28;20033;-63
2021/11/22 04:44:44;;;;;;;2.95;1.75;;;;;;;;;;5052440;28;20032;-63
2021/11/22 04:47:12;;;;;;;5.45;1.50;;;;;;;;;;5055979;28;20660;-63
2021/11/22 04:49:39;;;;;;;4.10;1.65;;;;;;;;;;5054832;28;20055;-63
2021/11/22 04:52:06;;;;;;;4.97;1.30;;;;;;;;;;5060892;28;20051;-63
2021/11/22 04:54:32;;;;;;;6.72;1.35;;;;;;;;;;5043918;28;20070;-63
2021/11/22 04:56:59;;;;;;;3.33;1.25;;;;;;;;;;5060187;28;20079;-63
2021/11/22 04:59:25;;;;;;;7.07;1.55;;;;;;;;;;5063318;28;20049;-63
2021/11/22 05:01:51;;;;;;;6.30;1.40;;;;;;;;;;5062802;28;20171;-63
2021/11/22 05:04:17;;;;;;;3.38;1.50;;;;;;;;;;5063512;28;20033;-63
2021/11/22 05:06:43;;;;;;;4.35;1.20;;;;;;;;;;5062841;28;20043;-64
2021/11/22 05:09:09;;;;;;;2.10;1.02;;;;;;;;;;5061758;28;20041;-63
2021/11/22 05:11:35;;;;;;;6.20;1.35;;;;;;;;;;5043534;28;20048;-63
2021/11/22 05:14:01;;;;;;;4.00;1.30;;;;;;;;;;5043042;28;20111;-63
2021/11/22 05:16:27;;;;;;;5.93;1.60;;;;;;;;;;5060414;28;20086;-63
2021/11/22 05:18:55;;;;;;;7.35;1.60;;;;;;;;;;5060476;28;20036;-63
2021/11/22 05:21:21;;;;;;;6.85;1.40;;;;;;;;;;5058837;28;20039;-63
2021/11/22 05:23:48;;;;;;;6.97;1.20;;;;;;;;;;5042112;28;20048;-63
2021/11/22 05:26:14;;;;;;;5.43;1.60;;;;;;;;;;5041758;28;20578;-63
2021/11/22 05:28:41;;;;;;;4.90;1.15;;;;;;;;;;5058397;28;20048;-63
2021/11/22 05:31:07;;;;;;;3.72;1.23;;;;;;;;;;5059396;28;20066;-63
2021/11/22 05:33:34;;;;;;;1.48;0.82;;;4.80;99.90;;;;;;5058529;28;20032;-63
2021/11/22 05:36:00;;;;;;;6.05;1.23;;;;;;;;;;5058974;28;20036;-63
2021/11/22 05:38:26;;;;;;;4.45;1.88;;;;;;;;;;5040806;28;20032;-63
2021/11/22 05:40:52;;;;;;;5.22;1.30;;;;;;;;;;5040967;28;20194;-63
2021/11/22 05:43:18;;;;;;;5.10;1.20;;;;;;;;;;5060580;28;20070;-63
2021/11/22 05:45:45;;;;;;;2.10;1.42;;;;;;;;;;5060746;28;20549;-63
2021/11/22 05:48:11;;;;;;;2.15;1.00;;;;;;;;;;5061191;28;20093;-63
2021/11/22 05:50:37;;;;;;;4.05;1.27;;;;;;;;;;5061173;28;20505;-63
2021/11/22 05:53:03;;;;;;;5.35;1.00;;;;;;;;;;5042347;28;20139;-63
2021/11/22 05:55:38;;;;;;;3.65;1.13;;;4.60;99.90;;;;;;5061691;28;20081;-63
2021/11/22 05:58:04;;;;;;;4.65;1.42;;;;;;;;;;5025384;28;20032;-63
2021/11/22 06:00:30;;;;;;;5.88;1.42;;;;;;;;;;5060211;28;20040;-63
2021/11/22 06:02:56;;;;;;;6.93;1.35;;;;;;;;;;5041802;28;20029;-63
2021/11/22 06:05:22;;;;;;;2.33;1.10;;;;;;;;;;5059532;28;20856;-63
2021/11/22 06:07:48;;;;;;;4.43;1.38;;;;;;;;;;5060071;28;20049;-63
2021/11/22 06:10:14;;;;;;;3.53;1.20;;;;;;;;;;5059719;28;20139;-63
2021/11/22 06:12:40;;;;;;;1.90;1.05;;;;;;;;;;5059851;28;20206;-63
2021/11/22 06:15:06;;;;;;;2.08;1.20;;;;;;;;;;5060583;28;20047;-63
2021/11/22 06:17:32;;;;;;;2.75;1.27;;;;;;;;;;5040528;28;20028;-63
2021/11/22 06:19:58;;;;;;;4.57;1.48;;;;;;;;;;5058928;28;20040;-63
2021/11/22 06:22:25;;;;;;;3.30;1.00;;;;;;;;;;5058853;28;20535;-63
2021/11/22 06:24:51;;;;;;;1.95;1.00;;;;;;;;;;5059167;28;20109;-63
2021/11/22 06:27:17;;;;;;;3.75;1.55;;;;;;;;;;5058829;28;20036;-63
2021/11/22 06:29:43;;;;;;;2.28;1.10;;;;;;;;;;5039743;28;20745;-63
2021/11/22 06:32:12;;;;;;;1.55;1.00;;;;;;;;;;5059348;28;20036;-63
2021/11/22 06:34:38;;;;;;;3.00;1.30;;;;;;;;;;5058534;28;20056;-63
2021/11/22 06:37:04;;;;;;;6.90;1.40;;;;;;;;;;5058870;28;20166;-63
2021/11/22 06:39:30;;;;;;;3.92;0.98;;;;;;;;;;5059198;28;20028;-63
2021/11/22 06:41:56;;;;;;;6.35;0.90;;;;;;;;;;5058039;28;20108;-63
2021/11/22 06:44:22;;;;;;;1.83;0.85;;;;;;;;;;5059469;28;20043;-63
2021/11/22 06:46:49;;;;;;;6.30;1.40;;;;;;;;;;5041349;28;20505;-63
2021/11/22 06:49:15;;;;;;;7.75;1.20;;;;;;;;;;5058347;28;20207;-63
2021/11/22 06:51:41;;;;;;;5.43;1.08;;;;;;;;;;5059198;28;20059;-63
2021/11/22 06:54:07;;;;;;;4.10;1.00;;;;;;;;;;5040393;28;20052;-63
2021/11/22 06:56:33;;;;;;;2.65;0.90;;;;;;;;;;5058478;28;20135;-63
2021/11/22 06:58:59;;;;;;;5.25;1.08;;;;;;;;;;5058820;28;20035;-63
2021/11/22 07:01:25;;;;;;;2.70;1.10;;;;;;;;;;5058298;28;20028;-63
2021/11/22 07:03:51;;;;;;;3.53;1.02;;;;;;;;;;5057571;28;20099;-63
2021/11/22 07:06:17;;;;;;;3.22;1.00;;;;;;;;;;5055553;28;20044;-63
2021/11/22 07:08:43;;;;;;;4.40;1.08;;;;;;;;;;5058172;28;20150;-63
2021/11/22 07:11:10;;;;;;;5.03;1.15;;;;;;;;;;5039439;28;20428;-63
2021/11/22 07:13:36;;;;;;;2.17;1.10;;;;;;;;;;5056599;28;20036;-63
2021/11/22 07:16:02;;;;;;;4.25;1.20;;;;;;;;;;5058596;28;20352;-63
2021/11/22 07:18:28;;;;;;;7.15;1.60;;;;;;;;;;5056955;28;20030;-63
2021/11/22 07:20:54;;;;;;;4.43;2.05;;;;;;;;;;5057722;28;20032;-63
2021/11/22 07:23:25;;;;;;;8.00;2.10;;;;;;;;;;5058232;28;20070;-63
2021/11/22 07:25:51;;;;;;;3.28;1.98;;;;;;;;;;5057218;28;20048;-63
2021/11/22 07:28:16;;;;;;;3.53;1.60;;;3.10;99.90;;;;;;5039918;28;20033;-63
2021/11/22 07:30:42;;;;;;;5.60;1.40;;;;;;;;;;5058242;28;20033;-63
2021/11/22 07:33:10;;;;;;;2.53;0.90;;;;;;;;;;5056975;28;20594;-63
2021/11/22 07:35:36;;;;;;;9.77;1.13;;;;;;;;;;5040012;28;20036;-63
2021/11/22 07:38:01;;;;;;;5.68;1.00;;;3.60;99.90;;;;;;5057345;28;20033;-63
2021/11/22 07:40:27;;;;;;;1.65;1.00;;;;;;;;;;5057056;28;20039;-63
2021/11/22 07:42:54;;;;;;;2.10;1.00;;;;;;;;;;5057593;28;20028;-63
2021/11/22 07:45:20;;;;;;;6.78;1.40;;;;;;;;;;5038584;28;20395;-63
2021/11/22 07:47:46;;;;;;;2.22;0.80;;;;;;;;;;5056890;28;20052;-64
2021/11/22 07:50:12;;;;;;;1.48;0.70;;;;;;;;;;5056498;28;20047;-63
2021/11/22 07:52:38;;;;;;;4.00;1.00;;;;;;;;;;5037689;28;20464;-63
2021/11/22 07:55:04;;;;;;;2.25;0.93;;;;;;;;;;5057177;28;20036;-63
2021/11/22 07:57:30;;;;;;;1.08;0.70;;;;;;;;;;5055753;28;20040;-64
2021/11/22 07:59:56;;;;;;;1.58;0.90;;;;;;;;;;5057366;28;20044;-63
2021/11/22 08:02:22;;;;;;;1.75;0.80;;;;;;;;;;5056742;28;20021;-63
2021/11/22 08:04:49;;;;;;;3.40;0.85;;;;;;;;;;5057368;28;20060;-64
2021/11/22 08:07:20;;;;;;;5.15;0.85;;;;;;;;;;5057141;28;20046;-63
2021/11/22 08:10:05;;;;;;;3.72;0.80;;;;;;;;;;5038912;28;20059;-63
2021/11/22 08:12:33;;;;;;;4.38;1.50;;;;;;;;;;5056995;28;20040;-63
2021/11/22 08:14:59;;;;;;;3.42;0.80;;;;;;;;;;5056354;28;20105;-63
2021/11/22 08:17:25;;;;;;;3.85;1.17;;;;;;;;;;5056077;28;20033;-63
2021/11/22 08:19:51;;;;;;;5.50;0.80;;;;;;;;;;5056988;28;20032;-63
2021/11/22 08:22:17;;;;;;;6.97;1.95;;;;;;;;;;5055948;28;20075;-63
2021/11/22 08:24:45;;;;;;;5.07;2.50;;;;;;;;;;5038106;28;20037;-63
2021/11/22 08:27:11;;;;;;;7.57;3.88;;;;;;;;;;5056646;28;20037;-63
2021/11/22 08:29:37;;;;;;;6.00;4.07;;;;;;;;;;5035950;28;20116;-63
2021/11/22 08:32:03;;;;;;;3.17;2.38;;;;;;;;;;5056327;28;20107;-63
2021/11/22 08:34:29;;;;;;;2.50;1.67;;;;;;;;;;5056090;28;20048;-63
2021/11/22 08:36:55;;;;;;;3.65;1.77;;;;;;;;;;5055787;28;20048;-63
2021/11/22 08:39:21;;;;;;;5.47;3.05;;;;;;;;;;5056043;28;20028;-63
2021/11/22 08:41:48;;;;;;;3.63;2.00;;;;;;;;;;5054735;28;20032;-63
2021/11/22 08:44:14;;;;;;;3.17;2.10;;;;;;;;;;5056595;28;20024;-64
2021/11/22 08:46:41;;;;;;;5.32;1.58;;;;;;;;;;5056181;28;20032;-63
2021/11/22 08:49:08;;;;;;;0.77;0.70;;;;;;;;;;5055462;28;20033;-63
2021/11/22 08:51:34;;;;;;;2.03;1.23;;;;;;;;;;5055790;28;20042;-63
2021/11/22 08:54:00;;;;;;;2.90;1.10;;;;;;;;;;5055428;28;20218;-63
2021/11/22 08:56:26;;;;;;;1.63;0.77;;;;;;;;;;5055552;28;20077;-63
2021/11/22 08:58:52;;;;;;;3.30;1.35;;;;;;;;;;5055192;28;20040;-63
2021/11/22 09:01:18;;;;;;;3.05;0.98;;;;;;;;;;5056307;28;20840;-63
2021/11/22 09:03:44;;;;;;;2.50;1.60;;;;;;;;;;5056575;28;20093;-63
2021/11/22 09:06:11;;;;;;;2.30;1.15;;;;;;;;;;5058059;28;20105;-63
2021/11/22 09:08:36;;;;;;;1.50;0.90;;;6.00;99.90;;;;;;5058703;28;20028;-64
2021/11/22 09:11:02;;;;;;;1.08;0.98;;;;;;;;;;5058287;28;20033;-64
2021/11/22 09:13:28;;;;;;;1.83;1.10;;;;;;;;;;5059048;28;20040;-63
2021/11/22 09:15:55;;;;;;;1.55;0.95;;;;;;;;;;5059211;28;20050;-64
2021/11/22 09:18:21;;;;;;;3.00;1.40;;;;;;;;;;5056961;28;20431;-63
2021/11/22 09:20:47;;;;;;;1.85;0.90;;;;;;;;;;5057483;28;20119;-63
2021/11/22 09:23:14;;;;;;;2.63;0.90;;;;;;;;;;5055710;28;20063;-63
2021/11/22 09:25:40;;;;;;;1.30;0.90;;;;;;;;;;5056370;28;20044;-64
2021/11/22 09:28:06;;;;;;;1.40;1.05;;;;;;;;;;5056080;28;20109;-64
2021/11/22 09:30:32;;;;;;;1.15;0.80;;;;;;;;;;5055854;28;20095;-63
2021/11/22 09:32:58;;;;;;;2.58;1.00;;;;;;;;;;5055130;28;20032;-63
2021/11/22 09:35:26;;;;;;;3.72;0.50;;;;;;;;;;5054541;28;20032;-63
2021/11/22 09:37:52;;;;;;;1.67;0.75;;;;;;;;;;5057459;28;20032;-63
2021/11/22 09:40:18;;;;;;;2.40;0.82;;;;;;;;;;5058736;28;20036;-64
2021/11/22 09:42:44;;;;;;;4.20;1.40;;;;;;;;;;5058518;28;20744;-64
2021/11/22 09:45:11;;;;;;;6.18;3.20;;;;;;;;;;5059201;28;20861;-63
2021/11/22 09:47:37;;;;;;;2.67;1.70;;;;;;;;;;5041041;28;20105;-64
2021/11/22 09:50:03;;;;;;;1.58;0.98;;;;;;;;;;5059010;28;20101;-63
2021/11/22 09:52:30;;;;;;;1.60;1.00;;;;;;;;;;5042263;28;20258;-63
2021/11/22 09:54:56;;;;;;;3.67;1.45;;;;;;;;;;5060148;28;20047;-63
2021/11/22 09:57:22;;;;;;;0.75;0.60;;;;;;;;;;5061092;28;20417;-63
2021/11/22 09:59:48;;;;;;;5.63;1.00;;;;;;;;;;5060112;28;20078;-63
2021/11/22 10:02:15;;;;;;;1.95;0.88;;;;;;;;;;5025028;28;20583;-63
2021/11/22 10:04:41;;;;;;;4.88;0.70;;;;;;;;;;5043085;28;20032;-67
2021/11/22 10:07:06;;;;;;;2.25;0.70;;;7.30;99.90;;;;;;5058929;28;20028;-64
2021/11/22 10:09:32;;;;;;;2.42;0.60;;;;;;;;;;5060156;28;20041;-64
2021/11/22 10:11:58;;;;;;;7.45;1.73;;;;;;;;;;5026566;28;20034;-64
2021/11/22 10:14:25;;;;;;;2.97;0.98;;;;;;;;;;5059647;28;20040;-64
2021/11/22 10:16:51;;;;;;;0.63;0.60;;;;;;;;;;5041753;28;20211;-64
2021/11/22 10:19:17;;;;;;;1.77;1.10;;;;;;;;;;5060275;28;20044;-64
2021/11/22 10:21:43;;;;;;;0.98;0.68;;;7.20;99.90;;;;;;5059609;28;20078;-65
2021/11/22 10:24:09;;;;;;;4.10;1.35;;;;;;;;;;5059810;28;20029;-64
2021/11/22 10:26:35;;;;;;;2.13;1.00;;;;;;;;;;5041033;28;20038;-65
2021/11/22 10:29:01;;;;;;;0.75;0.52;;;;;;;;;;5059847;28;20037;-65
2021/11/22 10:31:27;;;;;;;6.95;2.20;;;;;;;;;;5059824;28;20346;-65
2021/11/22 10:33:53;;;;;;;8.73;3.78;;;;;;;;;;5059450;28;20036;-64
2021/11/22 10:36:19;;;;;;;6.95;2.92;;;;;;;;;;5059753;28;20139;-65
2021/11/22 10:38:45;;;;;;;2.25;0.93;;;;;;;;;;5040324;28;20044;-65
2021/11/22 10:41:11;;;;;;;2.95;1.83;;;;;;;;;;5060115;28;20029;-64
2021/11/22 10:43:37;;;;;;;2.70;1.50;;;;;;;;;;5060102;28;20030;-64
2021/11/22 10:46:03;;;;;;;1.77;0.70;;;;;;;;;;5057869;28;20032;-64
2021/11/22 10:48:30;;;;;;;1.40;0.80;;;;;;;;;;5057490;28;20035;-64
2021/11/22 10:50:56;;;;;;;2.30;0.90;;;;;;;;;;5056602;28;20036;-65
2021/11/22 10:53:21;;;;;;;0.95;0.60;;;8.10;99.90;;;;;;5058629;28;20032;-65
2021/11/22 10:55:47;;;;;;;4.28;1.88;;;;;;;;;;5041687;28;20514;-64
2021/11/22 10:58:13;;;;;;;3.42;0.77;;;;;;;;;;5058976;28;20166;-64
2021/11/22 11:00:39;;;;;;;6.95;3.38;;;;;;;;;;5040394;28;20111;-64
2021/11/22 11:03:05;;;;;;;1.08;0.65;;;;;;;;;;5058770;28;20032;-65
2021/11/22 11:05:32;;;;;;;2.83;1.75;;;;;;;;;;5058415;28;20036;-65
2021/11/22 11:07:58;;;;;;;1.23;0.60;;;;;;;;;;5038299;28;20033;-65
2021/11/22 11:10:24;;;;;;;1.42;1.10;;;;;;;;;;5058454;28;20043;-65
2021/11/22 11:12:51;;;;;;;3.67;0.90;;;;;;;;;;5057937;28;20043;-64
2021/11/22 11:15:18;;;;;;;4.05;2.08;;;;;;;;;;5057803;28;20105;-64
2021/11/22 11:17:44;;;;;;;1.42;1.02;;;;;;;;;;5057476;28;20696;-65
2021/11/22 11:20:10;;;;;;;0.63;0.60;;;;;;;;;;5058482;28;20036;-65
2021/11/22 11:22:36;;;;;;;1.77;1.20;;;;;;;;;;5058677;28;20040;-65
2021/11/22 11:25:02;;;;;;;0.90;0.60;;;;;;;;;;5058167;28;20059;-65
2021/11/22 11:27:28;;;;;;;1.45;0.80;;;;;;;;;;5058692;28;20060;-65
2021/11/22 11:29:54;;;;;;;4.38;2.00;;;;;;;;;;5058557;28;20067;-65
2021/11/22 11:32:20;;;;;;;1.38;1.00;;;;;;;;;;5039728;28;20131;-65
2021/11/22 11:34:46;;;;;;;4.22;2.67;;;;;;;;;;5058180;28;20759;-65
2021/11/22 11:37:12;;;;;;;2.13;1.45;;;;;;;;;;5056626;28;20033;-64
2021/11/22 11:39:38;;;;;;;3.50;1.95;;;;;;;;;;5058080;28;20057;-64
2021/11/22 11:42:04;;;;;;;4.05;2.05;;;;;;;;;;5040623;28;20021;-64
2021/11/22 11:44:30;;;;;;;1.83;1.48;;;;;;;;;;5038926;28;20587;-64
2021/11/22 11:46:56;;;;;;;9.55;4.07;;;;;;;;;;5057278;28;20181;-64
2021/11/22 11:49:22;;;;;;;8.05;3.67;;;;;;;;;;5057914;28;20723;-64
2021/11/22 11:51:48;;;;;;;10.55;4.15;;;;;;;;;;5056372;28;20036;-65
2021/11/22 11:54:14;;;;;;;12.10;4.72;;;;;;;;;;5057233;28;20044;-65
2021/11/22 11:56:44;;;;;;;7.07;3.75;;;;;;;;;;5057104;28;20139;-65
2021/11/22 11:59:10;;;;;;;11.48;4.18;;;;;;;;;;5054270;28;20389;-65
2021/11/22 12:01:36;;;;;;;8.63;4.22;;;;;;;;;;5056893;28;20037;-65
2021/11/22 12:04:02;;;;;;;12.50;4.60;;;;;;;;;;5057146;28;20033;-65
2021/11/22 12:06:28;;;;;;;10.68;5.30;;;;;;;;;;5057681;28;20183;-65
2021/11/22 12:08:54;;;;;;;7.95;4.07;;;;;;;;;;5056550;28;20035;-65
2021/11/22 12:11:20;;;;;;;4.78;2.92;;;;;;;;;;5057217;28;20036;-65
2021/11/22 12:13:46;;;;;;;9.57;4.45;;;;;;;;;;5057094;28;20028;-65
2021/11/22 12:16:12;;;;;;;9.63;5.28;;;;;;;;;;5037392;28;20028;-65
2021/11/22 12:18:39;;;;;;;7.90;4.50;;;;;;;;;;5055724;28;20594;-66
2021/11/22 12:21:05;;;;;;;6.05;2.80;;;;;;;;;;5057400;28;20689;-66
2021/11/22 12:23:31;;;;;;;9.02;3.50;;;;;;;;;;5056694;28;20094;-65
2021/11/22 12:25:57;;;;;;;4.75;2.30;;;;;;;;;;5056939;28;20040;-65
2021/11/22 12:28:23;;;;;;;4.80;2.30;;;;;;;;;;5055836;28;20127;-64
2021/11/22 12:30:49;;;;;;;0.77;0.73;;;;;;;;;;5038247;28;20051;-67
2021/11/22 12:33:15;;;;;;;10.02;4.55;;;;;;;;;;5057194;28;20550;-69
2021/11/22 12:35:42;;;;;;;2.03;1.30;;;;;;;;;;5055625;28;20086;-70
2021/11/22 12:38:08;;;;;;;2.15;1.20;;;;;;;;;;5056711;28;20032;-70
2021/11/22 12:40:34;;;;;;;6.78;1.10;;;;;;;;;;5056182;28;20111;-70
2021/11/22 12:43:00;;;;;;;5.57;2.70;;;;;;;;;;5056919;28;20048;-70
2021/11/22 12:45:26;;;;;;;1.65;1.15;;;;;;;;;;5038468;28;20024;-70
2021/11/22 12:47:52;;;;;;;0.75;0.60;;;;;;;;;;5056078;28;20033;-71
2021/11/22 12:50:18;;;;;;;1.33;0.80;;;;;;;;;;5039015;28;20098;-71
2021/11/22 12:52:44;;;;;;;2.20;1.10;;;;;;;;;;5055438;28;20029;-70
2021/11/22 12:55:10;;;;;;;1.77;0.77;;;;;;;;;;5056000;28;20802;-70
2021/11/22 12:57:36;;;;;;;1.00;0.60;;;;;;;;;;5056266;28;20063;-70
2021/11/22 13:00:03;;;;;;;2.90;0.60;;;;;;;;;;5054938;28;20029;-69
2021/11/22 13:02:29;;;;;;;0.90;0.70;;;;;;;;;;5056313;28;20108;-70
2021/11/22 13:04:55;;;;;;;1.48;0.52;;;;;;;;;;5038868;28;20822;-71
2021/11/22 13:07:21;;;;;;;3.97;0.45;;;;;;;;;;5036031;28;20032;-71
2021/11/22 13:09:47;;;;;;;2.08;0.47;;;7.10;99.90;;;;;;5058662;28;20105;-70
2021/11/22 13:12:13;;;;;;;6.20;1.35;;;;;;;;;;5058619;28;20527;-70
2021/11/22 13:14:50;;;;;;;1.40;0.43;;;;;;;;;;5060887;28;20050;-70
2021/11/22 13:17:16;;;;;;;2.25;1.05;;;;;;;;;;5060776;28;20036;-69
2021/11/22 13:19:41;;;;;;;1.45;0.45;;;8.00;99.90;;;;;;5062365;28;20048;-68
2021/11/22 13:22:07;;;;;;;2.60;1.20;;;;;;;;;;5063123;28;20016;-69
2021/11/22 13:24:33;;;;;;;2.03;0.90;;;;;;;;;;5062901;28;20052;-70
2021/11/22 13:27:00;;;;;;;2.72;1.17;;;;;;;;;;5062014;28;20397;-70
2021/11/22 13:29:26;;;;;;;4.75;1.90;;;;;;;;;;5062262;28;20032;-71
2021/11/22 13:31:52;;;;;;;2.85;1.75;;;;;;;;;;5061132;28;20040;-71
2021/11/22 13:34:19;;;;;;;2.05;0.70;;;;;;;;;;5061257;28;20040;-71
2021/11/22 13:36:46;;;;;;;1.77;1.63;;;;;;;;;;5059959;28;20040;-71
2021/11/22 13:39:12;;;;;;;1.42;0.77;;;;;;;;;;5041317;28;21148;-70
2021/11/22 13:41:38;;;;;;;0.30;0.30;;;;;;;;;;5059474;28;20024;-71
2021/11/22 13:44:08;;;;;;;1.77;0.80;;;;;;;;;;5058560;28;20033;-70
2021/11/22 13:46:34;;;;;;;2.63;0.52;;;;;;;;;;5059453;28;20912;-71
2021/11/22 13:49:00;;;;;;;2.58;0.95;;;;;;;;;;5059553;28;20959;-70
2021/11/22 13:51:26;;;;;;;3.25;0.93;;;8.90;99.90;;;;;;5059657;28;20445;-70
2021/11/22 13:53:52;;;;;;;3.25;2.45;;;;;;;;;;5060725;28;20033;-70
2021/11/22 13:56:18;;;;;;;3.95;1.35;;;;;;;;;;5059492;28;20036;-70
2021/11/22 13:58:44;;;;;;;1.95;0.93;;;;;;;;;;5059698;28;20039;-70
2021/11/22 14:01:10;;;;;;;2.63;1.75;;;;;;;;;;5040406;28;20033;-70
2021/11/22 14:03:36;;;;;;;2.85;1.58;;;;;;;;;;5060989;28;20464;-70
2021/11/22 14:06:02;;;;;;;1.30;1.10;;;;;;;;;;5061167;28;20032;-70
2021/11/22 14:08:28;;;;;;;1.63;0.40;;;;;;;;;;5060834;28;20085;-70
2021/11/22 14:10:54;;;;;;;1.02;0.93;;;;;;;;;;5060694;28;20775;-70
2021/11/22 14:13:20;;;;;;;2.30;1.30;;;;;;;;;;5060185;28;20058;-69
2021/11/22 14:15:46;;;;;;;2.05;0.75;;;;;;;;;;5056856;28;20028;-70
2021/11/22 14:18:12;;;;;;;2.22;0.73;;;;;;;;;;5059589;28;20785;-70
2021/11/22 14:20:39;;;;;;;2.55;0.60;;;;;;;;;;5041974;28;20036;-71
2021/11/22 14:23:06;;;;;;;1.05;0.45;;;;;;;;;;5059768;28;20481;-70
2021/11/22 14:25:31;;;;;;;0.77;0.57;;;6.30;99.90;;;;;;5060528;28;20492;-71
2021/11/22 14:27:57;;;;;;;0.88;0.50;;;;;;;;;;5059492;28;20040;-71
2021/11/22 14:30:23;;;;;;;2.03;0.40;;;;;;;;;;5060297;28;20029;-71